createdAt,value
2023-01-13T00:01:13.564Z,100810.34
2023-01-13T00:04:16.027Z,100789.41
2023-01-13T00:07:18.469Z,100807.38
2023-01-13T00:10:21.405Z,100813.13
2023-01-13T00:13:26.897Z,100796.53
2023-01-13T00:16:29.256Z,100806.53
2023-01-13T00:19:31.695Z,100810.81
2023-01-13T00:22:35.392Z,100809.16
2023-01-13T00:25:37.730Z,100785.69
2023-01-13T00:28:40.547Z,100772.72
2023-01-13T00:31:42.921Z,100790.16
2023-01-13T00:34:45.315Z,100792.97
2023-01-13T00:37:47.696Z,100806.09
2023-01-13T00:40:57.759Z,100789.13
2023-01-13T00:44:00.134Z,100788.47
2023-01-13T00:47:02.752Z,100794.03
2023-01-13T00:50:06.369Z,100795.09
2023-01-13T00:53:08.758Z,100796.19
2023-01-13T00:56:30.529Z,100791.31
2023-01-13T00:59:41.010Z,100805.38
2023-01-13T01:02:43.502Z,100805.22
2023-01-13T01:05:46.072Z,100783.22
2023-01-13T01:08:48.918Z,100799.00
2023-01-13T01:11:51.667Z,100794.16
2023-01-13T01:14:54.146Z,100781.84
2023-01-13T01:17:56.521Z,100784.19
2023-01-13T01:21:02.802Z,100788.34
2023-01-13T01:24:05.930Z,100781.47
2023-01-13T01:27:08.375Z,100774.44
2023-01-13T01:30:11.683Z,100776.34
2023-01-13T01:33:14.130Z,100775.25
2023-01-13T01:36:19.263Z,100751.81
2023-01-13T01:39:22.626Z,100768.00
2023-01-13T01:42:43.431Z,100763.13
2023-01-13T01:45:45.867Z,100762.47
2023-01-13T01:48:48.799Z,100764.25
2023-01-13T01:52:02.798Z,100760.72
2023-01-13T01:55:08.747Z,100763.00
2023-01-13T01:58:12.865Z,100755.47
2023-01-13T02:01:16.296Z,100759.94
2023-01-13T02:04:25.047Z,100742.00
2023-01-13T02:07:30.600Z,100736.19
2023-01-13T02:10:33.726Z,100751.41
2023-01-13T02:13:36.220Z,100749.53
2023-01-13T02:16:47.954Z,100752.91
2023-01-13T02:20:27.806Z,100743.84
2023-01-13T02:23:58.300Z,100745.31
2023-01-13T02:27:16.690Z,100733.47
2023-01-13T02:30:59.153Z,100729.69
2023-01-13T02:34:25.477Z,100720.13
2023-01-13T02:37:31.734Z,100738.44
2023-01-13T02:40:59.242Z,100724.00
2023-01-13T02:44:07.240Z,100731.81
2023-01-13T02:47:22.864Z,100727.75
2023-01-13T02:50:31.389Z,100716.19
2023-01-13T02:53:57.474Z,100723.88
2023-01-13T02:57:01.192Z,100719.81
2023-01-13T03:00:07.220Z,100716.28
2023-01-13T03:03:09.735Z,100715.91
2023-01-13T03:06:51.713Z,100717.78
2023-01-13T03:10:08.225Z,100713.31
2023-01-13T03:13:56.037Z,100708.47
2023-01-13T03:17:13.199Z,100709.88
2023-01-13T03:20:26.441Z,100695.31
2023-01-13T03:23:37.459Z,100702.03
2023-01-13T03:26:43.292Z,100701.53
2023-01-13T03:30:09.453Z,100706.91
2023-01-13T03:33:17.129Z,100708.78
2023-01-13T03:36:25.718Z,100693.25
2023-01-13T03:39:34.326Z,100697.72
2023-01-13T03:42:40.808Z,100696.25
2023-01-13T03:45:47.414Z,100686.94
2023-01-13T03:48:56.382Z,100685.56
2023-01-13T03:52:05.013Z,100683.00
2023-01-13T03:55:15.320Z,100687.63
2023-01-13T03:58:23.461Z,100699.22
2023-01-13T04:01:34.659Z,100696.38
2023-01-13T04:04:59.375Z,100690.84
2023-01-13T04:08:15.018Z,100697.44
2023-01-13T04:11:35.811Z,100708.34
2023-01-13T04:14:39.196Z,100707.00
2023-01-13T04:17:42.120Z,100700.00
2023-01-13T04:20:47.957Z,100698.63
2023-01-13T04:23:51.520Z,100686.88
2023-01-13T04:26:54.025Z,100696.94
2023-01-13T04:29:56.501Z,100697.38
2023-01-13T04:32:59.437Z,100695.63
2023-01-13T04:36:01.940Z,100687.00
2023-01-13T04:39:04.554Z,100702.09
2023-01-13T04:42:06.908Z,100695.75
2023-01-13T04:45:09.891Z,100696.28
2023-01-13T04:48:12.861Z,100713.59
2023-01-13T04:51:15.302Z,100707.84
2023-01-13T04:54:17.760Z,100699.38
2023-01-13T04:57:20.185Z,100717.97
2023-01-13T05:00:23.712Z,100709.72
2023-01-13T05:03:26.861Z,100711.50
2023-01-13T05:06:30.151Z,100718.28
2023-01-13T05:09:32.869Z,100694.56
2023-01-13T05:12:53.656Z,100716.94
2023-01-13T05:16:24.850Z,100715.63
2023-01-13T05:19:29.117Z,100723.16
2023-01-13T05:22:50.328Z,100698.59
2023-01-13T05:25:52.830Z,100712.00
2023-01-13T05:28:55.464Z,100720.34
2023-01-13T05:31:58.115Z,100716.03
2023-01-13T05:35:00.826Z,100722.13
2023-01-13T05:38:03.296Z,100726.28
2023-01-13T05:41:24.727Z,100722.41
2023-01-13T05:44:27.250Z,100727.22
2023-01-13T05:47:29.720Z,100715.50
2023-01-13T05:50:32.410Z,100726.41
2023-01-13T05:53:43.464Z,100717.06
2023-01-13T05:56:45.900Z,100717.19
2023-01-13T05:59:48.414Z,100711.41
2023-01-13T06:02:51.624Z,100721.78
2023-01-13T06:05:58.772Z,100710.72
2023-01-13T06:09:01.279Z,100719.38
2023-01-13T06:12:04.544Z,100717.25
2023-01-13T06:15:07.479Z,100727.19
2023-01-13T06:18:10.378Z,100723.84
2023-01-13T06:21:13.081Z,100730.44
2023-01-13T06:24:15.738Z,100719.63
2023-01-13T06:27:18.490Z,100730.97
2023-01-13T06:30:21.078Z,100730.81
2023-01-13T06:33:30.234Z,100735.53
2023-01-13T06:36:41.914Z,100716.00
2023-01-13T06:39:44.674Z,100726.16
2023-01-13T06:43:26.060Z,100738.56
2023-01-13T06:46:29.092Z,100738.41
2023-01-13T06:49:31.979Z,100730.19
2023-01-13T06:52:34.420Z,100736.53
2023-01-13T06:55:37.336Z,100750.25
2023-01-13T06:58:39.959Z,100747.91
2023-01-13T07:01:42.594Z,100757.56
2023-01-13T07:04:46.737Z,100760.81
2023-01-13T07:07:49.301Z,100745.94
2023-01-13T07:10:52.962Z,100751.56
2023-01-13T07:14:17.687Z,100755.50
2023-01-13T07:17:25.363Z,100750.50
2023-01-13T07:20:30.933Z,100755.56
2023-01-13T07:23:36.379Z,100751.13
2023-01-13T07:26:38.863Z,100759.69
2023-01-13T07:29:41.624Z,100760.97
2023-01-13T07:32:44.197Z,100771.16
2023-01-13T07:35:47.541Z,100749.84
2023-01-13T07:38:50.103Z,100759.19
2023-01-13T07:42:11.299Z,100760.56
2023-01-13T07:45:15.117Z,100769.38
2023-01-13T07:48:17.631Z,100758.09
2023-01-13T07:51:20.354Z,100758.25
2023-01-13T07:54:35.223Z,100758.16
2023-01-13T07:57:42.507Z,100763.59
2023-01-13T08:00:48.628Z,100755.91
2023-01-13T08:03:51.185Z,100752.13
2023-01-13T08:06:53.650Z,100779.41
2023-01-13T08:09:56.263Z,100774.13
2023-01-13T08:13:17.222Z,100789.66
2023-01-13T08:16:19.732Z,100778.63
2023-01-13T08:19:22.620Z,100782.59
2023-01-13T08:22:25.807Z,100793.75
2023-01-13T08:25:29.746Z,100797.50
2023-01-13T08:28:33.166Z,100802.88
2023-01-13T08:31:35.957Z,100792.66
2023-01-13T08:34:38.579Z,100787.44
2023-01-13T08:37:41.559Z,100792.22
2023-01-13T08:40:44.015Z,100785.53
2023-01-13T08:43:46.484Z,100773.78
2023-01-13T08:46:49.385Z,100792.66
2023-01-13T08:49:51.837Z,100798.31
2023-01-13T08:52:54.387Z,100811.44
2023-01-13T08:55:56.950Z,100810.56
2023-01-13T08:59:00.255Z,100806.34
2023-01-13T09:02:04.306Z,100804.75
2023-01-13T09:05:08.155Z,100800.66
2023-01-13T09:08:10.806Z,100795.38
2023-01-13T09:11:37.362Z,100791.63
2023-01-13T09:14:40.510Z,100801.25
2023-01-13T09:17:43.031Z,100790.69
2023-01-13T09:20:46.131Z,100763.63
2023-01-13T09:23:48.655Z,100789.59
2023-01-13T09:26:51.265Z,100782.59
2023-01-13T09:29:53.733Z,100780.06
2023-01-13T09:33:18.528Z,100800.28
2023-01-13T09:36:21.253Z,100775.25
2023-01-13T09:39:23.705Z,100781.31
2023-01-13T09:43:33.229Z,100792.56
2023-01-13T09:46:51.493Z,100782.75
2023-01-13T09:49:58.626Z,100790.41
2023-01-13T09:53:01.445Z,100783.69
2023-01-13T09:56:05.112Z,100791.56
2023-01-13T09:59:12.117Z,100773.22
2023-01-13T10:02:40.051Z,100782.06
2023-01-13T10:06:31.198Z,100785.13
2023-01-13T10:09:51.979Z,100774.50
2023-01-13T10:13:13.394Z,100775.84
2023-01-13T10:16:30.991Z,100783.63
2023-01-13T10:19:59.557Z,100782.03
2023-01-13T10:23:26.647Z,100779.19
2023-01-13T10:26:44.731Z,100767.88
2023-01-13T10:29:47.220Z,100775.03
2023-01-13T10:32:56.525Z,100761.28
2023-01-13T10:35:59.559Z,100767.91
2023-01-13T10:39:16.949Z,100761.16
2023-01-13T10:42:22.957Z,100756.91
2023-01-13T10:45:25.988Z,100749.31
2023-01-13T10:48:58.419Z,100743.00
2023-01-13T10:52:02.339Z,100737.78
2023-01-13T10:55:25.783Z,100741.75
2023-01-13T10:58:28.624Z,100728.41
2023-01-13T11:01:34.141Z,100712.72
2023-01-13T11:04:39.057Z,100722.16
2023-01-13T11:07:58.025Z,100711.94
2023-01-13T11:11:00.838Z,100710.59
2023-01-13T11:14:26.934Z,100710.59
2023-01-13T11:18:01.438Z,100731.66
2023-01-13T11:21:09.462Z,100713.84
2023-01-13T11:24:37.462Z,100721.91
2023-01-13T11:27:59.521Z,100716.50
2023-01-13T11:31:11.092Z,100700.63
2023-01-13T11:34:36.987Z,100709.75
2023-01-13T11:37:45.088Z,100701.94
2023-01-13T11:40:50.927Z,100678.41
2023-01-13T11:44:25.564Z,100702.09
2023-01-13T11:47:28.443Z,100680.25
2023-01-13T11:50:54.071Z,100677.03
2023-01-13T11:54:08.863Z,100666.19
2023-01-13T11:57:35.700Z,100653.66
2023-01-13T12:00:56.258Z,100654.28
2023-01-13T12:04:26.177Z,100648.81
2023-01-13T12:07:36.967Z,100637.84
2023-01-13T12:10:47.330Z,100632.94
2023-01-13T12:14:15.978Z,100641.06
2023-01-13T12:17:47.581Z,100618.50
2023-01-13T12:21:07.195Z,100613.97
2023-01-13T12:24:46.479Z,100621.34
2023-01-13T12:28:14.220Z,100624.94
2023-01-13T12:31:19.481Z,100637.47
2023-01-13T12:34:39.106Z,100638.97
2023-01-13T12:38:23.571Z,100643.97
2023-01-13T12:42:04.250Z,100650.88
2023-01-13T12:45:12.937Z,100658.41
2023-01-13T12:48:57.043Z,100648.31
2023-01-13T12:52:09.672Z,100637.06
2023-01-13T12:55:16.854Z,100630.97
2023-01-13T12:58:28.207Z,100639.34
2023-01-13T13:01:35.882Z,100644.84
2023-01-13T13:04:51.865Z,100645.97
2023-01-13T13:08:06.882Z,100646.66
2023-01-13T13:11:42.108Z,100651.97
2023-01-13T13:14:47.337Z,100652.94
2023-01-13T13:17:58.907Z,100651.50
2023-01-13T13:21:09.572Z,100648.97
2023-01-13T13:24:12.106Z,100647.50
2023-01-13T13:27:18.889Z,100623.81
2023-01-13T13:30:34.796Z,100643.81
2023-01-13T13:34:09.635Z,100646.00
2023-01-13T13:37:27.638Z,100646.66
2023-01-13T13:41:02.937Z,100650.97
2023-01-13T13:44:36.064Z,100644.06
2023-01-13T13:47:39.722Z,100653.72
2023-01-13T13:50:48.442Z,100661.78
2023-01-13T13:53:51.341Z,100674.53
2023-01-13T13:56:54.059Z,100670.63
2023-01-13T13:59:59.088Z,100675.47
2023-01-13T14:03:19.410Z,100656.47
2023-01-13T14:06:24.314Z,100658.53
2023-01-13T14:09:28.836Z,100665.34
2023-01-13T14:12:38.471Z,100657.75
2023-01-13T14:15:41.336Z,100651.13
2023-01-13T14:18:48.811Z,100641.81
2023-01-13T14:21:51.447Z,100650.97
2023-01-13T14:24:58.065Z,100650.69
2023-01-13T14:28:18.681Z,100643.25
2023-01-13T14:31:22.440Z,100648.88
2023-01-13T14:34:32.839Z,100640.66
2023-01-13T14:37:39.022Z,100659.50
2023-01-13T14:40:45.763Z,100670.31
2023-01-13T14:43:50.652Z,100660.47
2023-01-13T14:46:56.560Z,100678.53
2023-01-13T14:50:23.511Z,100676.91
2023-01-13T14:53:39.578Z,100662.91
2023-01-13T14:56:53.916Z,100666.00
2023-01-13T14:59:59.140Z,100667.59
2023-01-13T15:03:08.028Z,100658.09
2023-01-13T15:06:25.735Z,100666.66
2023-01-13T15:09:41.570Z,100646.97
2023-01-13T15:12:44.218Z,100657.47
2023-01-13T15:15:51.578Z,100649.06
2023-01-13T15:18:56.078Z,100658.44
2023-01-13T15:21:58.540Z,100651.19
2023-01-13T15:25:00.952Z,100673.91
2023-01-13T15:28:04.983Z,100669.25
2023-01-13T15:31:07.476Z,100662.63
2023-01-13T15:34:10.021Z,100658.28
2023-01-13T15:37:13.620Z,100650.56
2023-01-13T15:40:20.290Z,100651.38
2023-01-13T15:43:42.629Z,100664.41
2023-01-13T15:46:45.295Z,100660.50
2023-01-13T15:49:47.917Z,100681.13
2023-01-13T15:52:50.484Z,100672.41
2023-01-13T15:55:56.611Z,100671.13
2023-01-13T15:58:59.172Z,100682.38
2023-01-13T16:02:01.734Z,100673.38
2023-01-13T16:05:05.471Z,100685.59
2023-01-13T16:08:18.983Z,100684.00
2023-01-13T16:11:21.549Z,100681.13
2023-01-13T16:14:24.005Z,100687.84
2023-01-13T16:17:30.001Z,100677.72
2023-01-13T16:20:34.008Z,100683.72
2023-01-13T16:23:36.438Z,100676.63
2023-01-13T16:26:38.996Z,100681.44
2023-01-13T16:29:42.558Z,100672.88
2023-01-13T16:32:45.027Z,100689.16
2023-01-13T16:36:10.340Z,100687.38
2023-01-13T16:39:21.033Z,100695.16
2023-01-13T16:42:23.657Z,100691.75
2023-01-13T16:45:27.079Z,100699.34
2023-01-13T16:48:29.598Z,100687.88
2023-01-13T16:51:33.299Z,100681.47
2023-01-13T16:54:35.928Z,100689.72
2023-01-13T16:57:38.329Z,100682.75
2023-01-13T17:00:41.474Z,100695.63
2023-01-13T17:03:44.560Z,100696.59
2023-01-13T17:06:58.442Z,100707.59
2023-01-13T17:10:01.170Z,100709.34
2023-01-13T17:13:14.817Z,100695.34
2023-01-13T17:16:24.337Z,100693.25
2023-01-13T17:19:27.064Z,100685.69
2023-01-13T17:22:30.844Z,100698.09
2023-01-13T17:25:33.352Z,100690.84
2023-01-13T17:28:35.886Z,100700.69
2023-01-13T17:31:39.038Z,100710.50
2023-01-13T17:34:41.665Z,100700.84
2023-01-13T17:37:44.232Z,100703.09
2023-01-13T17:40:47.063Z,100695.84
2023-01-13T17:43:49.712Z,100706.94
2023-01-13T17:46:52.175Z,100705.97
2023-01-13T17:49:55.358Z,100721.13
2023-01-13T17:52:57.981Z,100733.53
2023-01-13T17:56:00.418Z,100719.53
2023-01-13T17:59:02.879Z,100717.31
2023-01-13T18:02:05.765Z,100725.34
2023-01-13T18:05:08.923Z,100713.25
2023-01-13T18:08:11.538Z,100708.25
2023-01-13T18:11:15.739Z,100716.31
2023-01-13T18:14:23.010Z,100706.94
2023-01-13T18:17:25.679Z,100698.75
2023-01-13T18:20:48.858Z,100702.63
2023-01-13T18:24:09.895Z,100718.09
2023-01-13T18:27:22.633Z,100715.50
2023-01-13T18:30:28.037Z,100714.41
2023-01-13T18:33:30.839Z,100713.75
2023-01-13T18:36:33.349Z,100723.13
2023-01-13T18:39:37.474Z,100721.81
2023-01-13T18:42:54.315Z,100696.19
2023-01-13T18:45:57.165Z,100716.81
2023-01-13T18:48:59.750Z,100712.16
2023-01-13T18:52:02.232Z,100706.34
2023-01-13T18:55:05.206Z,100708.59
2023-01-13T18:58:08.115Z,100710.22
2023-01-13T19:01:10.955Z,100722.78
2023-01-13T19:04:15.899Z,100722.13
2023-01-13T19:07:23.677Z,100711.16
2023-01-13T19:10:31.721Z,100715.22
2023-01-13T19:13:37.594Z,100729.06
2023-01-13T19:16:40.262Z,100725.38
2023-01-13T19:19:48.393Z,100734.38
2023-01-13T19:22:54.353Z,100724.06
2023-01-13T19:26:06.694Z,100739.25
2023-01-13T19:29:09.611Z,100737.44
2023-01-13T19:32:13.388Z,100734.69
2023-01-13T19:35:18.086Z,100744.69
2023-01-13T19:38:21.554Z,100732.59
2023-01-13T19:41:43.291Z,100745.34
2023-01-13T19:45:04.566Z,100754.00
2023-01-13T19:48:08.480Z,100755.56
2023-01-13T19:51:14.356Z,100769.44
2023-01-13T19:54:17.056Z,100764.06
2023-01-13T19:57:20.823Z,100793.88
2023-01-13T20:00:25.291Z,100790.47
2023-01-13T20:03:31.444Z,100781.09
2023-01-13T20:06:34.012Z,100773.97
2023-01-13T20:09:36.828Z,100788.97
2023-01-13T20:12:39.480Z,100769.59
2023-01-13T20:15:42.424Z,100770.44
2023-01-13T20:18:49.127Z,100765.81
2023-01-13T20:21:51.937Z,100753.63
2023-01-13T20:24:55.382Z,100758.47
2023-01-13T20:27:58.779Z,100762.19
2023-01-13T20:31:04.710Z,100792.47
2023-01-13T20:34:07.358Z,100811.28
2023-01-13T20:37:09.980Z,100827.25
2023-01-13T20:40:15.723Z,100819.03
2023-01-13T20:43:18.432Z,100831.97
2023-01-13T20:46:22.846Z,100809.44
2023-01-13T20:49:27.791Z,100798.47
2023-01-13T20:52:30.718Z,100800.25
2023-01-13T20:55:33.467Z,100792.84
2023-01-13T20:58:38.164Z,100797.81
2023-01-13T21:01:40.986Z,100772.19
2023-01-13T21:04:43.726Z,100776.69
2023-01-13T21:07:46.190Z,100782.38
2023-01-13T21:10:49.142Z,100772.69
2023-01-13T21:14:10.228Z,100780.44
2023-01-13T21:17:33.921Z,100771.38
2023-01-13T21:20:39.113Z,100777.47
2023-01-13T21:23:43.231Z,100785.25
2023-01-13T21:26:45.806Z,100778.84
2023-01-13T21:29:48.527Z,100771.09
2023-01-13T21:32:51.446Z,100770.09
2023-01-13T21:35:53.989Z,100743.50
2023-01-13T21:38:59.992Z,100749.13
2023-01-13T21:42:21.219Z,100771.81
2023-01-13T21:45:42.333Z,100757.34
2023-01-13T21:48:44.878Z,100750.31
2023-01-13T21:51:47.424Z,100753.66
2023-01-13T21:55:08.143Z,100746.56
2023-01-13T21:58:13.843Z,100751.72
2023-01-13T22:01:16.472Z,100731.44
2023-01-13T22:04:22.268Z,100735.13
2023-01-13T22:07:27.566Z,100755.72
2023-01-13T22:10:32.307Z,100765.69
2023-01-13T22:13:53.204Z,100797.44
2023-01-13T22:17:00.513Z,100818.56
2023-01-13T22:20:03.963Z,100839.66
2023-01-13T22:23:06.507Z,100865.06
2023-01-13T22:26:09.221Z,100859.41
2023-01-13T22:29:11.625Z,100877.16
2023-01-13T22:32:15.993Z,100866.22
2023-01-13T22:35:19.077Z,100876.13
2023-01-13T22:38:21.846Z,100867.41
2023-01-13T22:41:24.584Z,100863.56
2023-01-13T22:44:27.575Z,100843.25
2023-01-13T22:47:31.379Z,100831.97
2023-01-13T22:50:34.266Z,100827.94
2023-01-13T22:53:37.751Z,100813.72
2023-01-13T22:56:40.470Z,100805.72
2023-01-13T22:59:43.014Z,100800.72
2023-01-13T23:02:45.438Z,100799.41
2023-01-13T23:05:48.419Z,100801.31
2023-01-13T23:08:51.569Z,100804.88
2023-01-13T23:11:54.235Z,100795.34
2023-01-13T23:14:56.698Z,100802.78
2023-01-13T23:17:59.279Z,100792.63
2023-01-13T23:21:10.111Z,100782.31
2023-01-13T23:24:12.768Z,100781.50
2023-01-13T23:27:15.953Z,100770.41
2023-01-13T23:30:19.007Z,100766.19
2023-01-13T23:33:21.809Z,100777.81
2023-01-13T23:36:26.205Z,100782.13
2023-01-13T23:39:28.849Z,100795.19
2023-01-13T23:42:31.573Z,100782.31
2023-01-13T23:45:34.473Z,100787.16
2023-01-13T23:48:37.391Z,100787.13
2023-01-13T23:51:39.926Z,100792.09
2023-01-13T23:54:42.340Z,100796.28
2023-01-13T23:57:44.657Z,100788.06
